createdAt,value
2018-11-06T00:02:03.056Z,78.86
2018-11-06T00:04:37.141Z,78.79
2018-11-06T00:07:05.222Z,78.73
2018-11-06T00:09:33.268Z,78.90
2018-11-06T00:12:01.320Z,79.00
2018-11-06T00:14:29.294Z,79.01
2018-11-06T00:16:57.276Z,78.85
2018-11-06T00:19:25.273Z,78.86
2018-11-06T00:21:53.211Z,78.66
2018-11-06T00:24:21.185Z,78.72
2018-11-06T00:26:49.244Z,78.74
2018-11-06T00:29:17.203Z,78.69
2018-11-06T00:31:45.308Z,79.50
2018-11-06T00:34:14.178Z,79.28
2018-11-06T00:36:42.150Z,79.10
2018-11-06T00:39:10.483Z,79.04
2018-11-06T00:41:38.612Z,79.02
2018-11-06T00:44:06.637Z,78.87
2018-11-06T00:46:34.609Z,78.82
2018-11-06T00:49:02.583Z,78.88
2018-11-06T00:51:30.552Z,78.81
2018-11-06T00:53:58.509Z,78.59
2018-11-06T00:56:26.489Z,78.74
2018-11-06T00:58:54.423Z,78.44
2018-11-06T01:01:22.411Z,78.55
2018-11-06T01:04:22.273Z,78.41
2018-11-06T01:06:50.298Z,78.31
2018-11-06T01:09:18.287Z,78.43
2018-11-06T01:11:46.293Z,78.56
2018-11-06T01:14:14.249Z,78.55
2018-11-06T01:16:42.285Z,78.74
2018-11-06T01:19:10.676Z,78.69
2018-11-06T01:21:38.683Z,78.60
2018-11-06T01:24:07.449Z,78.66
2018-11-06T01:26:35.395Z,78.42
2018-11-06T01:29:03.468Z,78.24
2018-11-06T01:31:31.502Z,78.47
2018-11-06T01:33:59.429Z,78.54
2018-11-06T01:36:27.383Z,78.39
2018-11-06T01:38:55.349Z,78.24
2018-11-06T01:41:23.457Z,78.00
2018-11-06T01:43:51.408Z,78.03
2018-11-06T01:46:22.540Z,77.91
2018-11-06T01:48:50.504Z,77.62
2018-11-06T01:51:18.517Z,77.69
2018-11-06T01:53:46.653Z,77.48
2018-11-06T01:56:14.666Z,77.45
2018-11-06T01:58:42.689Z,77.42
2018-11-06T02:01:10.640Z,77.12
2018-11-06T02:03:38.683Z,77.00
2018-11-06T02:06:06.906Z,77.07
2018-11-06T02:08:34.960Z,76.57
2018-11-06T02:11:03.048Z,77.54
2018-11-06T02:13:31.109Z,77.61
2018-11-06T02:15:59.133Z,77.58
2018-11-06T02:18:27.119Z,77.75
2018-11-06T02:20:55.129Z,77.64
2018-11-06T02:23:23.239Z,77.78
2018-11-06T02:25:51.250Z,78.18
2018-11-06T02:28:19.221Z,78.02
2018-11-06T02:30:47.226Z,78.69
2018-11-06T02:33:15.300Z,78.35
2018-11-06T02:35:43.321Z,78.68
2018-11-06T02:38:11.434Z,78.62
2018-11-06T02:40:39.539Z,78.52
2018-11-06T02:43:07.536Z,78.47
2018-11-06T02:45:35.538Z,78.53
2018-11-06T02:48:03.557Z,78.48
2018-11-06T02:50:31.576Z,79.06
2018-11-06T02:52:59.556Z,78.71
2018-11-06T02:55:27.552Z,78.99
2018-11-06T02:57:55.555Z,78.82
2018-11-06T03:00:23.531Z,78.80
2018-11-06T03:02:51.594Z,79.10
2018-11-06T03:05:19.585Z,78.80
2018-11-06T03:07:47.592Z,78.91
2018-11-06T03:10:15.691Z,78.97
2018-11-06T03:12:44.233Z,78.88
2018-11-06T03:15:13.251Z,78.81
2018-11-06T03:17:41.213Z,78.84
2018-11-06T03:20:10.306Z,78.78
2018-11-06T03:22:38.383Z,78.78
2018-11-06T03:25:06.635Z,79.02
2018-11-06T03:27:34.645Z,78.94
2018-11-06T03:30:03.440Z,78.96
2018-11-06T03:32:31.377Z,78.82
2018-11-06T03:34:59.450Z,78.85
2018-11-06T03:37:27.486Z,78.74
2018-11-06T03:39:55.471Z,78.87
2018-11-06T03:42:23.434Z,78.88
2018-11-06T03:44:51.359Z,78.86
2018-11-06T03:47:19.313Z,78.85
2018-11-06T03:49:47.280Z,78.61
2018-11-06T03:52:15.262Z,78.78
2018-11-06T03:54:43.277Z,79.08
2018-11-06T03:57:11.222Z,78.89
2018-11-06T03:59:39.169Z,78.63
2018-11-06T04:02:07.104Z,78.67
2018-11-06T04:04:35.084Z,78.75
2018-11-06T04:07:03.120Z,78.69
2018-11-06T04:09:31.099Z,78.56
2018-11-06T04:11:59.057Z,78.75
2018-11-06T04:14:27.009Z,78.76
2018-11-06T04:16:54.932Z,78.71
2018-11-06T04:19:22.899Z,78.73
2018-11-06T04:21:50.863Z,79.04
2018-11-06T04:24:18.895Z,79.04
2018-11-06T04:26:47.656Z,78.88
2018-11-06T04:29:15.622Z,79.05
2018-11-06T04:31:43.620Z,78.84
2018-11-06T04:34:11.532Z,78.77
2018-11-06T04:36:39.513Z,78.79
2018-11-06T04:39:08.929Z,78.72
2018-11-06T04:41:36.935Z,78.76
2018-11-06T04:44:05.659Z,78.78
2018-11-06T04:46:33.741Z,78.51
2018-11-06T04:49:01.625Z,78.41
2018-11-06T04:51:29.593Z,78.20
2018-11-06T04:53:57.627Z,78.17
2018-11-06T04:56:25.894Z,78.22
2018-11-06T04:58:53.953Z,77.98
2018-11-06T05:01:22.504Z,77.94
2018-11-06T05:03:50.433Z,77.78
2018-11-06T05:06:18.844Z,77.69
2018-11-06T05:08:46.840Z,77.54
2018-11-06T05:11:14.949Z,77.54
2018-11-06T05:13:43.040Z,77.23
2018-11-06T05:16:11.027Z,77.53
2018-11-06T05:18:38.986Z,77.51
2018-11-06T05:21:07.405Z,77.16
2018-11-06T05:23:35.543Z,77.40
2018-11-06T05:26:04.325Z,77.28
2018-11-06T05:28:32.294Z,77.34
2018-11-06T05:31:00.316Z,77.19
2018-11-06T05:33:28.240Z,77.41
2018-11-06T05:35:56.233Z,77.07
2018-11-06T05:38:24.137Z,77.08
2018-11-06T05:40:57.473Z,76.95
2018-11-06T05:43:25.434Z,76.77
2018-11-06T05:45:54.063Z,77.05
2018-11-06T05:48:22.121Z,77.37
2018-11-06T05:50:50.233Z,77.12
2018-11-06T05:53:18.408Z,77.03
2018-11-06T05:55:46.496Z,77.36
2018-11-06T05:58:14.416Z,77.05
2018-11-06T06:00:42.983Z,77.12
2018-11-06T06:03:10.920Z,76.78
2018-11-06T06:05:38.889Z,76.67
2018-11-06T06:08:07.115Z,75.89
2018-11-06T06:10:35.277Z,76.13
2018-11-06T06:13:03.874Z,76.18
2018-11-06T06:15:31.941Z,76.00
2018-11-06T06:17:59.909Z,76.02
2018-11-06T06:20:27.882Z,75.87
2018-11-06T06:22:55.898Z,76.32
2018-11-06T06:25:23.853Z,76.39
2018-11-06T06:27:51.961Z,76.21
2018-11-06T06:30:19.923Z,76.12
2018-11-06T06:32:47.967Z,76.29
2018-11-06T06:35:16.072Z,76.16
2018-11-06T06:37:44.177Z,76.46
2018-11-06T06:40:13.635Z,76.21
2018-11-06T06:42:41.953Z,76.58
2018-11-06T06:45:11.876Z,76.81
2018-11-06T06:47:39.863Z,77.11
2018-11-06T06:50:09.980Z,77.26
2018-11-06T06:52:38.562Z,77.37
2018-11-06T06:55:07.718Z,77.57
2018-11-06T06:57:36.237Z,77.39
2018-11-06T07:00:04.496Z,77.63
2018-11-06T07:02:32.564Z,78.24
2018-11-06T07:05:00.455Z,78.59
2018-11-06T07:07:28.373Z,78.18
2018-11-06T07:09:56.335Z,78.62
2018-11-06T07:12:24.240Z,79.05
2018-11-06T07:14:52.154Z,78.96
2018-11-06T07:17:20.129Z,78.77
2018-11-06T07:19:48.116Z,78.85
2018-11-06T07:22:16.028Z,78.85
2018-11-06T07:24:43.984Z,78.66
2018-11-06T07:27:12.003Z,78.92
2018-11-06T07:29:39.971Z,78.78
2018-11-06T07:32:08.534Z,78.78
2018-11-06T07:34:36.616Z,78.92
2018-11-06T07:37:04.714Z,79.12
2018-11-06T07:39:32.692Z,79.12
2018-11-06T07:42:00.662Z,78.92
2018-11-06T07:44:28.759Z,79.20
2018-11-06T07:46:56.812Z,78.97
2018-11-06T07:49:24.885Z,78.92
2018-11-06T07:51:52.928Z,79.28
2018-11-06T07:54:20.885Z,79.46
2018-11-06T07:56:48.877Z,78.95
2018-11-06T07:59:16.937Z,78.42
2018-11-06T08:01:44.886Z,77.52
2018-11-06T08:04:12.988Z,77.26
2018-11-06T08:06:40.960Z,76.91
2018-11-06T08:09:09.717Z,76.39
2018-11-06T08:11:38.496Z,76.09
2018-11-06T08:14:06.508Z,75.84
2018-11-06T08:16:34.443Z,75.05
2018-11-06T08:19:02.455Z,75.01
2018-11-06T08:21:30.505Z,74.45
2018-11-06T08:23:58.586Z,74.18
2018-11-06T08:26:26.525Z,74.08
2018-11-06T08:28:54.482Z,73.77
2018-11-06T08:31:22.801Z,73.74
2018-11-06T08:33:50.496Z,73.90
2018-11-06T08:36:18.577Z,74.23
2018-11-06T08:38:46.619Z,74.55
2018-11-06T08:41:14.898Z,74.73
2018-11-06T08:43:42.882Z,75.40
2018-11-06T08:46:10.857Z,76.07
2018-11-06T08:48:38.868Z,76.13
2018-11-06T08:51:07.065Z,76.29
2018-11-06T08:53:35.149Z,76.93
2018-11-06T08:56:03.742Z,77.24
2018-11-06T08:58:31.732Z,77.25
2018-11-06T09:00:59.740Z,77.42
2018-11-06T09:03:27.829Z,77.19
2018-11-06T09:05:56.809Z,77.73
2018-11-06T09:08:25.032Z,77.82
2018-11-06T09:10:53.195Z,78.19
2018-11-06T09:13:21.222Z,78.75
2018-11-06T09:15:49.316Z,79.00
2018-11-06T09:18:17.394Z,78.88
2018-11-06T09:20:45.501Z,79.06
2018-11-06T09:23:13.549Z,78.97
2018-11-06T09:25:41.500Z,78.83
2018-11-06T09:28:09.493Z,79.88
2018-11-06T09:30:37.516Z,79.25
2018-11-06T09:33:05.729Z,79.06
2018-11-06T09:35:33.710Z,79.15
2018-11-06T09:38:01.861Z,78.71
2018-11-06T09:42:57.863Z,78.12
2018-11-06T09:45:25.921Z,78.32
2018-11-06T09:47:53.988Z,77.64
2018-11-06T09:50:22.038Z,77.61
2018-11-06T09:52:50.176Z,76.93
2018-11-06T09:55:18.334Z,77.05
2018-11-06T09:57:46.919Z,76.52
2018-11-06T10:00:19.504Z,76.37
2018-11-06T10:02:47.641Z,76.06
2018-11-06T10:05:16.053Z,75.97
2018-11-06T10:07:44.169Z,75.68
2018-11-06T10:10:14.001Z,75.26
2018-11-06T10:12:42.365Z,75.23
2018-11-06T10:15:12.393Z,75.40
2018-11-06T10:17:41.386Z,75.31
2018-11-06T10:20:10.421Z,74.71
2018-11-06T10:22:38.495Z,74.03
2018-11-06T10:25:06.900Z,74.62
2018-11-06T10:27:35.092Z,74.38
2018-11-06T10:30:03.221Z,74.04
2018-11-06T10:32:31.314Z,73.79
2018-11-06T10:34:59.384Z,73.23
2018-11-06T10:37:27.353Z,73.05
2018-11-06T10:39:55.422Z,72.86
2018-11-06T10:42:23.359Z,72.71
2018-11-06T10:44:51.311Z,72.30
2018-11-06T10:47:19.234Z,72.02
2018-11-06T10:49:47.222Z,71.90
2018-11-06T10:52:15.236Z,71.68
2018-11-06T10:54:43.193Z,71.10
2018-11-06T10:57:11.164Z,71.24
2018-11-06T10:59:39.110Z,71.11
2018-11-06T11:03:10.044Z,71.44
2018-11-06T11:05:38.029Z,70.86
2018-11-06T11:08:05.984Z,70.91
2018-11-06T11:10:33.926Z,70.53
2018-11-06T11:13:01.845Z,70.56
2018-11-06T11:15:29.818Z,70.95
2018-11-06T11:17:57.928Z,70.70
2018-11-06T11:20:25.947Z,70.62
2018-11-06T11:22:53.929Z,70.40
2018-11-06T11:25:21.995Z,70.00
2018-11-06T11:27:50.077Z,69.35
2018-11-06T11:30:18.136Z,69.45
2018-11-06T11:32:47.131Z,69.46
2018-11-06T11:35:15.541Z,68.59
2018-11-06T11:37:43.675Z,68.52
2018-11-06T11:40:12.855Z,68.77
2018-11-06T11:42:40.971Z,68.36
2018-11-06T11:45:10.340Z,68.77
2018-11-06T11:47:38.597Z,67.70
2018-11-06T11:50:07.948Z,68.25
2018-11-06T11:52:35.964Z,67.98
2018-11-06T11:55:04.395Z,67.55
2018-11-06T11:57:34.376Z,68.37
2018-11-06T12:00:02.514Z,67.33
2018-11-06T12:02:30.484Z,66.66
2018-11-06T12:04:58.797Z,66.59
2018-11-06T12:07:26.887Z,66.23
2018-11-06T12:09:55.066Z,67.33
2018-11-06T12:12:23.096Z,68.14
2018-11-06T12:14:51.098Z,66.24
2018-11-06T12:17:19.426Z,66.06
2018-11-06T12:19:47.442Z,65.86
2018-11-06T12:22:15.468Z,65.36
2018-11-06T12:24:44.138Z,65.06
2018-11-06T12:27:12.123Z,65.50
2018-11-06T12:29:40.131Z,65.27
2018-11-06T12:32:09.074Z,64.25
2018-11-06T12:34:37.074Z,64.33
2018-11-06T12:37:05.228Z,66.13
2018-11-06T12:39:33.209Z,65.35
2018-11-06T12:42:01.189Z,64.69
2018-11-06T12:44:29.309Z,64.73
2018-11-06T12:46:57.314Z,64.05
2018-11-06T12:49:25.355Z,64.00
2018-11-06T12:51:53.944Z,64.37
2018-11-06T12:54:21.904Z,65.28
2018-11-06T12:56:49.902Z,65.01
2018-11-06T12:59:17.834Z,65.29
2018-11-06T13:01:45.847Z,65.91
2018-11-06T13:04:13.908Z,65.27
2018-11-06T13:06:41.893Z,65.22
2018-11-06T13:09:10.884Z,65.48
2018-11-06T13:11:39.253Z,64.80
2018-11-06T13:14:07.920Z,65.09
2018-11-06T13:16:36.102Z,65.66
2018-11-06T13:19:04.224Z,65.04
2018-11-06T13:21:32.255Z,65.30
2018-11-06T13:24:00.304Z,65.69
2018-11-06T13:26:28.648Z,65.49
2018-11-06T13:28:56.608Z,65.72
2018-11-06T13:31:24.732Z,65.88
2018-11-06T13:33:52.962Z,65.17
2018-11-06T13:36:20.995Z,66.02
2018-11-06T13:38:49.996Z,65.72
2018-11-06T13:41:18.044Z,65.72
2018-11-06T13:43:46.221Z,65.79
2018-11-06T13:46:14.089Z,65.63
2018-11-06T13:48:42.129Z,65.65
2018-11-06T13:51:10.120Z,66.24
2018-11-06T13:53:38.089Z,66.37
2018-11-06T13:56:06.995Z,66.78
2018-11-06T13:58:35.064Z,67.24
2018-11-06T14:01:03.086Z,67.15
2018-11-06T14:03:31.153Z,66.61
2018-11-06T14:05:59.143Z,66.05
2018-11-06T14:08:27.104Z,65.62
2018-11-06T14:10:55.180Z,65.93
2018-11-06T14:13:23.232Z,66.10
2018-11-06T14:15:51.205Z,66.02
2018-11-06T14:18:19.977Z,66.22
2018-11-06T14:20:48.084Z,66.41
2018-11-06T14:23:16.086Z,66.43
2018-11-06T14:25:44.204Z,66.92
2018-11-06T14:28:12.317Z,67.31
2018-11-06T14:30:40.556Z,66.71
2018-11-06T14:33:08.546Z,66.40
2018-11-06T14:35:36.560Z,66.03
2018-11-06T14:38:04.872Z,65.81
2018-11-06T14:40:32.886Z,65.43
2018-11-06T14:43:01.186Z,64.89
2018-11-06T14:45:29.283Z,65.24
2018-11-06T14:47:59.452Z,64.79
2018-11-06T14:50:27.396Z,64.85
2018-11-06T14:52:55.365Z,64.94
2018-11-06T14:55:23.413Z,65.03
2018-11-06T14:57:51.430Z,65.58
2018-11-06T15:00:20.546Z,66.21
2018-11-06T15:02:49.983Z,66.82
2018-11-06T15:05:18.877Z,67.58
2018-11-06T15:07:47.090Z,68.09
2018-11-06T15:10:15.302Z,68.40
2018-11-06T15:12:44.076Z,68.51
2018-11-06T15:15:13.377Z,68.78
2018-11-06T15:17:42.751Z,68.71
2018-11-06T15:20:13.372Z,69.17
2018-11-06T15:22:42.131Z,69.28
2018-11-06T15:25:11.235Z,69.16
2018-11-06T15:27:39.354Z,69.85
2018-11-06T15:30:09.632Z,69.46
2018-11-06T15:32:37.848Z,69.51
2018-11-06T15:35:06.773Z,70.44
2018-11-06T15:37:35.473Z,70.51
2018-11-06T15:40:03.763Z,70.91
2018-11-06T15:42:31.868Z,71.14
2018-11-06T15:44:59.835Z,71.01
2018-11-06T15:47:28.291Z,71.51
2018-11-06T15:49:56.349Z,71.30
2018-11-06T15:52:24.424Z,71.02
2018-11-06T15:54:52.503Z,71.18
2018-11-06T15:57:20.468Z,71.39
2018-11-06T15:59:48.525Z,71.53
2018-11-06T16:02:16.532Z,71.31
2018-11-06T16:04:45.377Z,71.24
2018-11-06T16:07:13.360Z,71.58
2018-11-06T16:09:41.408Z,71.64
2018-11-06T16:12:09.724Z,71.56
2018-11-06T16:14:37.875Z,71.79
2018-11-06T16:17:06.285Z,71.60
2018-11-06T16:19:34.293Z,71.26
2018-11-06T16:22:02.424Z,71.48
2018-11-06T16:24:30.385Z,71.46
2018-11-06T16:26:58.403Z,72.07
2018-11-06T16:29:26.405Z,71.88
2018-11-06T16:31:54.488Z,72.04
2018-11-06T16:34:22.492Z,72.46
2018-11-06T16:36:50.595Z,72.98
2018-11-06T16:39:18.593Z,73.08
2018-11-06T16:41:47.410Z,73.04
2018-11-06T16:44:15.414Z,73.12
2018-11-06T16:46:43.398Z,73.04
2018-11-06T16:49:11.508Z,73.85
2018-11-06T16:51:39.487Z,73.58
2018-11-06T16:54:07.472Z,74.03
2018-11-06T16:56:35.593Z,74.18
2018-11-06T16:59:03.571Z,73.80
2018-11-06T17:01:31.821Z,73.19
2018-11-06T17:03:59.814Z,73.21
2018-11-06T17:06:33.360Z,72.84
2018-11-06T17:09:01.381Z,72.76
2018-11-06T17:11:29.422Z,72.71
2018-11-06T17:13:57.510Z,72.63
2018-11-06T17:16:25.508Z,72.76
2018-11-06T17:18:53.504Z,73.01
2018-11-06T17:21:21.507Z,72.95
2018-11-06T17:23:49.468Z,72.97
2018-11-06T17:26:17.420Z,73.11
2018-11-06T17:28:46.515Z,73.41
2018-11-06T17:31:14.607Z,73.82
2018-11-06T17:33:42.616Z,73.59
2018-11-06T17:36:10.793Z,73.53
2018-11-06T17:38:38.791Z,73.27
2018-11-06T17:41:06.762Z,72.96
2018-11-06T17:43:34.827Z,72.90
2018-11-06T17:46:02.941Z,73.75
2018-11-06T17:48:31.635Z,73.50
2018-11-06T17:50:59.901Z,73.56
2018-11-06T17:53:27.859Z,73.42
2018-11-06T17:55:55.915Z,73.66
2018-11-06T17:58:23.869Z,73.81
2018-11-06T18:00:52.876Z,73.72
2018-11-06T18:03:20.869Z,73.47
2018-11-06T18:05:48.977Z,73.66
2018-11-06T18:08:17.071Z,73.50
2018-11-06T18:10:45.292Z,73.51
2018-11-06T18:13:13.413Z,73.63
2018-11-06T18:15:41.420Z,73.43
2018-11-06T18:18:10.165Z,74.06
2018-11-06T18:20:38.113Z,74.26
2018-11-06T18:23:06.304Z,74.78
2018-11-06T18:25:34.376Z,74.88
2018-11-06T18:28:02.411Z,75.13
2018-11-06T18:30:30.481Z,75.51
2018-11-06T18:32:58.443Z,75.76
2018-11-06T18:35:26.454Z,75.45
2018-11-06T18:37:54.459Z,75.47
2018-11-06T18:40:22.420Z,75.79
2018-11-06T18:42:51.034Z,75.48
2018-11-06T18:45:19.108Z,75.65
2018-11-06T18:47:47.871Z,75.14
2018-11-06T18:50:16.918Z,75.49
2018-11-06T18:52:46.282Z,75.27
2018-11-06T18:55:14.320Z,75.18
2018-11-06T18:57:42.488Z,75.92
2018-11-06T19:00:17.868Z,75.40
2018-11-06T19:02:46.746Z,75.54
2018-11-06T19:05:15.238Z,75.28
2018-11-06T19:07:43.901Z,75.08
2018-11-06T19:10:12.921Z,74.86
2018-11-06T19:12:41.192Z,74.82
2018-11-06T19:15:12.913Z,74.69
2018-11-06T19:19:26.939Z,74.32
2018-11-06T19:21:55.101Z,74.24
2018-11-06T19:24:23.057Z,74.28
2018-11-06T19:26:51.016Z,74.23
2018-11-06T19:29:18.966Z,74.16
2018-11-06T19:31:47.013Z,73.96
2018-11-06T19:34:15.074Z,73.81
2018-11-06T19:36:43.108Z,73.78
2018-11-06T19:39:12.053Z,74.27
2018-11-06T19:41:40.148Z,74.33
2018-11-06T19:44:09.671Z,74.34
2018-11-06T19:46:37.812Z,74.17
2018-11-06T19:49:05.835Z,73.99
2018-11-06T19:51:34.240Z,74.00
2018-11-06T19:54:02.376Z,73.67
2018-11-06T19:56:30.338Z,73.42
2018-11-06T19:58:58.283Z,73.63
2018-11-06T20:01:26.738Z,73.88
2018-11-06T20:03:54.708Z,74.04
2018-11-06T20:06:22.799Z,73.89
2018-11-06T20:08:50.978Z,75.34
2018-11-06T20:11:19.056Z,75.21
2018-11-06T20:13:47.020Z,74.81
2018-11-06T20:16:15.066Z,74.41
2018-11-06T20:18:43.046Z,74.27
2018-11-06T20:21:11.095Z,73.99
2018-11-06T20:23:39.077Z,73.87
2018-11-06T20:26:07.172Z,74.55
2018-11-06T20:28:36.013Z,74.30
2018-11-06T20:31:04.217Z,73.99
2018-11-06T20:33:32.340Z,74.12
2018-11-06T20:36:00.122Z,73.69
2018-11-06T20:38:28.084Z,73.69
2018-11-06T20:40:56.153Z,73.57
2018-11-06T20:43:24.162Z,73.61
2018-11-06T20:45:52.351Z,73.75
2018-11-06T20:48:20.574Z,74.62
2018-11-06T20:50:48.537Z,74.52
2018-11-06T20:53:16.474Z,74.21
2018-11-06T20:55:44.549Z,73.97
2018-11-06T20:58:12.569Z,74.16
2018-11-06T21:00:40.866Z,73.91
2018-11-06T21:03:08.767Z,74.83
2018-11-06T21:05:36.736Z,74.60
2018-11-06T21:08:04.910Z,74.77
2018-11-06T21:10:32.882Z,74.43
2018-11-06T21:13:00.867Z,74.27
2018-11-06T21:15:28.757Z,73.94
2018-11-06T21:17:57.095Z,73.69
2018-11-06T21:20:25.079Z,73.81
2018-11-06T21:22:52.895Z,73.43
2018-11-06T21:25:21.105Z,73.61
2018-11-06T21:27:48.966Z,73.74
2018-11-06T21:30:19.336Z,74.40
2018-11-06T21:32:48.651Z,74.41
2018-11-06T21:35:16.828Z,74.28
2018-11-06T21:37:44.801Z,74.12
2018-11-06T21:40:17.459Z,73.95
2018-11-06T21:42:45.851Z,74.38
2018-11-06T21:45:14.464Z,74.13
2018-11-06T21:47:43.540Z,74.57
2018-11-06T21:50:12.457Z,74.50
2018-11-06T21:52:40.414Z,74.63
2018-11-06T21:55:09.997Z,74.82
2018-11-06T21:57:38.272Z,74.64
2018-11-06T22:00:08.113Z,74.45
2018-11-06T22:02:36.140Z,74.33
2018-11-06T22:05:05.336Z,74.65
2018-11-06T22:07:33.288Z,74.37
2018-11-06T22:10:01.353Z,74.20
2018-11-06T22:12:29.391Z,74.96
2018-11-06T22:14:57.391Z,74.43
2018-11-06T22:17:25.369Z,74.87
2018-11-06T22:19:53.287Z,74.92
2018-11-06T22:22:21.271Z,75.35
2018-11-06T22:24:49.119Z,76.59
2018-11-06T22:27:17.032Z,76.18
2018-11-06T22:29:44.937Z,76.22
2018-11-06T22:32:13.169Z,76.42
2018-11-06T22:34:41.146Z,75.82
2018-11-06T22:37:09.165Z,75.63
2018-11-06T22:39:37.039Z,75.81
2018-11-06T22:42:04.999Z,75.59
2018-11-06T22:44:32.918Z,75.81
2018-11-06T22:47:00.864Z,76.25
2018-11-06T22:49:28.777Z,75.93
2018-11-06T22:51:56.797Z,76.29
2018-11-06T22:54:24.767Z,76.87
2018-11-06T22:56:52.798Z,76.61
2018-11-06T22:59:21.114Z,76.33
2018-11-06T23:01:49.154Z,76.23
2018-11-06T23:04:17.107Z,76.18
2018-11-06T23:06:45.132Z,75.86
2018-11-06T23:09:13.062Z,75.65
2018-11-06T23:11:40.992Z,75.60
2018-11-06T23:14:08.989Z,75.24
2018-11-06T23:16:36.988Z,75.23
2018-11-06T23:19:05.069Z,74.75
2018-11-06T23:21:33.116Z,75.44
2018-11-06T23:24:01.214Z,75.26
2018-11-06T23:26:29.857Z,75.02
2018-11-06T23:28:57.718Z,75.48
2018-11-06T23:31:25.714Z,75.18
2018-11-06T23:33:53.687Z,75.19
2018-11-06T23:36:21.769Z,75.43
2018-11-06T23:38:49.657Z,75.54
2018-11-06T23:41:17.721Z,75.32
2018-11-06T23:43:45.651Z,75.38
2018-11-06T23:46:13.638Z,75.58
2018-11-06T23:48:41.572Z,75.38
2018-11-06T23:51:09.440Z,75.64
2018-11-06T23:53:37.300Z,75.96
2018-11-06T23:56:05.307Z,76.36
2018-11-06T23:58:33.161Z,77.41
